OTHH Airport Information

Runway Information
Runway 16L Length 15912 ft width 197 ft Elevation 12 ft Threshold N/A Heading 156
Runway 34R Length 15912 ft Width 197 ft Elevation 12 ft Threshold N/A Heading 336
Runway 16R Length 13944 ft width 197 ft Elevation 12 ft Threshold N/A Heading 156
Runway 34L Length 13944 ft Width 197 ft Elevation 12 ft Threshold N/A Heading 336
Airport Frequencies
Airport Navaids
Airport Weather Information & NOTAM
ADDS - METARS form results

(0525 UTC 22 November 2022)
Data provider http://aviationweather.gov/metar/data/
 
METAR text: OTHH 220500Z AUTO 30007KT CAVOK 23/15 Q1018 NOSIG
Conditions at: OTHH (DOHA HAMAD INTL , QA) observed 0500 UTC 22 November 2022
Temperature: 23.0°C (73°F)
Dewpoint: 15.0°C (59°F) [RH = 61%]
Pressure (altimeter): 30.06 inches Hg (1018.0 mb)
Winds: from the WNW (300 degrees) at 8 MPH (7 knots; 3.6 m/s)
Visibility: 6 or more miles (10+ km)
Ceiling: ceiling and visibility are OK
Clouds: unknown
Weather: no significant weather observed at this time